Time;durP1;ratioP1;P1;durP2;ratioP2;P2;SDS_P1;SDS_P2;PMS_P1;PMS_P2;Temp;Humidity;BMP_temperature;BMP_pressure;BME280_temperature;BME280_humidity;BME280_pressure;Samples;Min_cycle;Max_cycle;Signal;HPM_P1;HPM_P2
2022/11/06 00:00:31;;;;;;;8.48;5.18;;;;;;;8.23;91.92;101377.75;4911430;29;20028;-82
2022/11/06 00:02:59;;;;;;;14.13;5.07;;;;;;;8.21;92.01;101382.41;4909312;29;20479;-82
2022/11/06 00:08:14;;;;;;;11.15;4.97;;;;;;;8.13;92.33;101381.94;4935884;28;20048;-82
2022/11/06 00:10:39;;;;;;;10.77;5.00;;;;;;;8.11;92.61;101386.53;4927315;29;20103;-82
2022/11/06 00:13:05;;;;;;;11.05;4.90;;;;;;;8.06;92.54;101377.78;4912305;29;20040;-82
2022/11/06 00:15:31;;;;;;;13.20;5.53;;;;;;;8.05;92.35;101379.63;4928976;29;20032;-82
2022/11/06 00:17:57;;;;;;;13.68;4.90;;;;;;;8.02;92.58;101378.91;4908057;29;20046;-82
2022/11/06 00:20:22;;;;;;;8.98;4.75;;;;;;;7.94;92.83;101365.78;4911775;29;20028;-82
2022/11/06 00:22:48;;;;;;;10.20;4.57;;;;;;;7.97;92.86;101371.03;4930593;29;20067;-82
2022/11/06 00:25:13;;;;;;;12.05;5.03;;;;;;;7.93;92.73;101370.34;4924403;29;20040;-82
2022/11/06 00:27:40;;;;;;;10.93;4.95;;;;;;;7.92;93.15;101375.81;4909470;29;20523;-82
2022/11/06 00:30:08;;;;;;;9.57;4.50;;;;;;;7.88;93.01;101363.38;4909796;29;20514;-82
2022/11/06 00:32:33;;;;;;;12.48;5.07;;;;;;;7.88;93.31;101368.81;4910925;29;20043;-82
2022/11/06 00:34:59;;;;;;;13.35;4.97;;;;;;;7.85;93.49;101360.84;4912016;29;20065;-82
2022/11/06 00:37:24;;;;;;;11.55;5.53;;;;;;;7.83;93.13;101350.13;4924940;29;20463;-82
2022/11/06 00:39:49;;;;;;;11.65;4.20;;;;;;;7.82;93.47;101348.34;4918741;29;20476;-82
2022/11/06 00:42:15;;;;;;;7.05;4.50;;;;;;;7.82;93.67;101345.63;4912839;29;20622;-82
2022/11/06 00:44:40;;;;;;;11.38;4.60;;;;;;;7.78;93.91;101335.91;4929102;29;20111;-81
2022/11/06 00:47:05;;;;;;;7.90;3.90;;;;;;;7.79;93.71;101336.81;4913674;29;20055;-81
2022/11/06 00:49:31;;;;;;;9.07;4.07;;;;;;;7.78;93.27;101341.31;4910764;29;20619;-82
2022/11/06 00:51:56;;;;;;;7.95;4.30;;;;;;;7.84;93.56;101354.56;4921036;29;20124;-82
2022/11/06 00:54:21;;;;;;;8.85;4.70;;;;;;;7.83;93.29;101362.75;4914417;29;20454;-82
2022/11/06 00:56:47;;;;;;;11.07;4.75;;;;;;;7.82;93.29;101353.75;4931323;29;20040;-83
2022/11/06 00:59:13;;;;;;;10.13;3.83;;;;;;;7.86;93.40;101358.06;4928451;29;20036;-81
2022/11/06 01:01:40;;;;;;;10.38;3.75;;;;;;;7.80;93.33;101347.56;4912077;29;20044;-82
2022/11/06 01:04:10;;;;;;;5.90;4.47;;;;;;;7.81;93.78;101364.69;4929281;29;20028;-82
2022/11/06 01:06:38;;;;;;;8.70;3.60;;;;;;;7.77;93.77;101366.66;4919722;29;20056;-82
2022/11/06 01:09:06;;;;;;;15.95;4.45;;;;;;;7.73;93.97;101359.66;4908593;29;20052;-82
2022/11/06 01:11:34;;;;;;;6.72;4.07;;;;;;;7.71;93.97;101352.59;4912538;29;20479;-82
2022/11/06 01:14:01;;;;;;;7.28;3.55;;;;;;;7.67;94.18;101354.56;4912630;29;20036;-82
2022/11/06 01:16:27;;;;;;;9.80;3.97;;;;;;;7.64;93.92;101355.59;4910688;29;20035;-82
2022/11/06 01:18:54;;;;;;;11.48;3.90;;;;;;;7.61;94.14;101342.22;4913699;29;20071;-82
2022/11/06 01:21:22;;;;;;;8.57;3.33;;;;;;;7.63;94.05;101342.13;4932231;28;20064;-82
2022/11/06 01:23:53;;;;;;;8.73;4.40;;;;;;;7.62;94.04;101343.97;4923394;29;20083;-82
2022/11/06 01:26:18;;;;;;;12.05;3.85;;;;;;;7.58;94.31;101336.09;4911823;29;20036;-81
2022/11/06 01:28:43;;;;;;;9.52;3.97;;;;;;;7.61;94.88;101335.94;4896404;29;20510;-82
2022/11/06 01:31:15;;;;;;;10.48;3.65;;;;;;;7.65;94.13;101330.28;4911202;29;20135;-81
2022/11/06 01:33:41;;;;;;;8.68;4.30;;;;;;;7.72;94.67;101329.97;4919646;29;20032;-82
2022/11/06 01:36:14;;;;;;;9.63;3.75;;;;;;;7.75;94.41;101327.09;4929575;29;20500;-82
2022/11/06 01:38:41;;;;;;;8.38;3.40;;;;;;;7.74;94.21;101320.81;4929854;29;20420;-81
2022/11/06 01:41:06;;;;;;;5.57;3.88;;;;;;;7.76;94.64;101318.88;4913102;29;20095;-82
2022/11/06 01:43:53;;;;;;;13.55;3.95;;;;;;;7.85;93.96;101317.53;4912240;29;20437;-82
2022/11/06 01:46:20;;;;;;;13.35;3.75;;;;;;;7.88;94.20;101315.53;4912976;29;20046;-82
2022/11/06 01:48:59;;;;;;;9.85;3.20;;;;;;;7.92;94.19;101308.97;4927393;29;20417;-82
2022/11/06 01:51:27;;;;;;;10.05;3.13;;;;;;;7.98;93.94;101317.75;4920451;29;20032;-82
2022/11/06 01:53:53;;;;;;;8.73;3.10;;;;;;;8.01;93.80;101321.13;4918814;29;20151;-82
2022/11/06 01:56:20;;;;;;;5.65;3.50;;;;;;;8.03;93.45;101313.81;4930354;29;20043;-82
2022/11/06 01:58:48;;;;;;;6.78;3.20;;;;;;;8.05;94.06;101305.59;4914582;29;20039;-82
2022/11/06 02:01:14;;;;;;;8.52;3.85;;;;;;;8.08;93.51;101306.31;4929763;29;20467;-82
2022/11/06 02:03:47;;;;;;;7.50;3.45;;;;;;;8.10;93.40;101306.22;4931684;29;20082;-82
2022/11/06 02:06:12;;;;;;;5.53;3.22;;;;;;;8.15;93.72;101310.41;4928638;29;20054;-82
2022/11/06 02:08:38;;;;;;;7.32;3.00;;;;;;;8.16;93.44;101301.34;4915623;29;20436;-81
2022/11/06 02:11:03;;;;;;;7.10;3.28;;;;;;;8.19;93.36;101294.88;4914624;29;20040;-82
2022/11/06 02:13:52;;;;;;;11.15;4.32;;;;;;;8.22;93.24;101305.56;4930490;29;20550;-82
2022/11/06 02:16:37;;;;;;;8.48;4.00;;;;;;;8.23;92.90;101293.75;4944859;29;20044;-82
2022/11/06 02:19:29;;;;;;;9.85;3.08;;;;;;;8.26;93.46;101292.72;4930396;29;20039;-82
2022/11/06 02:22:04;;;;;;;7.13;2.80;;;;;;;8.30;92.96;101297.88;4924414;29;20445;-82
2022/11/06 02:25:11;;;;;;;9.15;3.05;;;;;;;8.31;92.65;101286.06;4930864;29;20476;-82
2022/11/06 02:27:43;;;;;;;4.43;2.65;;;;;;;8.28;92.52;101279.94;4886852;29;20141;-82
2022/11/06 02:30:10;;;;;;;11.15;2.97;;;;;;;8.27;92.71;101283.63;4926334;29;20036;-82
2022/11/06 02:32:43;;;;;;;8.02;3.50;;;;;;;8.25;92.45;101280.09;4920175;29;20043;-82
2022/11/06 02:35:18;;;;;;;8.02;2.97;;;;;;;8.23;92.72;101273.91;4910600;29;20605;-82
2022/11/06 02:37:45;;;;;;;12.57;2.63;;;;;;;8.23;92.45;101279.31;4908512;29;20043;-82
2022/11/06 02:40:13;;;;;;;7.22;2.60;;;;;;;8.20;92.52;101269.50;4912420;29;20040;-82
2022/11/06 02:42:43;;;;;;;6.03;3.35;;;;;;;8.15;92.48;101269.75;4927300;29;20040;-82
2022/11/06 02:45:11;;;;;;;9.35;2.92;;;;;;;8.15;92.94;101264.34;4926257;29;20103;-82
2022/11/06 02:47:39;;;;;;;5.45;2.92;;;;;;;8.08;92.99;101264.78;4926329;29;20044;-82
2022/11/06 02:50:10;;;;;;;10.13;2.95;;;;;;;8.06;93.10;101270.28;4910668;29;20047;-82
2022/11/06 02:52:46;;;;;;;10.52;3.92;;;;;;;8.04;93.28;101266.78;4923465;29;20051;-82
2022/11/06 02:55:34;;;;;;;6.03;2.88;;;;;;;8.01;92.96;101260.66;4910722;29;20067;-82
2022/11/06 02:58:06;;;;;;;9.40;3.22;;;;;;;8.02;93.00;101265.09;4897831;29;20074;-82
2022/11/06 03:00:34;;;;;;;5.53;3.03;;;;;;;8.05;93.16;101263.13;4911075;29;20066;-83
2022/11/06 03:03:07;;;;;;;8.98;2.75;;;;;;;8.08;92.86;101267.50;4911784;29;20506;-82
2022/11/06 03:05:48;;;;;;;11.73;2.80;;;;;;;8.03;93.25;101269.59;4916474;29;20087;-82
2022/11/06 03:08:30;;;;;;;6.55;2.45;;;;;;;8.05;93.44;101289.34;4919748;29;20071;-82
2022/11/06 03:11:28;;;;;;;5.85;2.70;;;;;;;8.06;93.15;101283.81;4924750;29;20063;-82
2022/11/06 03:14:01;;;;;;;9.32;2.70;;;;;;;8.05;93.30;101289.34;4922073;29;20412;-82
2022/11/06 03:16:59;;;;;;;7.13;2.65;;;;;;;8.09;93.75;101285.50;4928167;29;20440;-82
2022/11/06 03:19:38;;;;;;;5.72;2.40;;;;;;;8.13;93.50;101268.13;4930712;29;20127;-82
2022/11/06 03:22:16;;;;;;;8.15;2.72;;;;;;;8.16;93.75;101266.13;4924101;29;20044;-81
2022/11/06 03:24:54;;;;;;;6.63;2.65;;;;;;;8.11;93.25;101259.19;4910486;29;20130;-82
2022/11/06 03:27:27;;;;;;;8.18;3.30;;;;;;;8.08;93.13;101246.69;4910115;29;20483;-82
2022/11/06 03:30:02;;;;;;;11.00;2.72;;;;;;;8.09;93.45;101244.84;4910300;29;20067;-82
2022/11/06 03:32:49;;;;;;;7.70;2.80;;;;;;;8.04;93.80;101249.66;4925639;29;20472;-82
2022/11/06 03:35:24;;;;;;;6.63;3.47;;;;;;;8.01;93.34;101237.16;4910290;29;20326;-82
2022/11/06 03:38:04;;;;;;;7.68;2.80;;;;;;;8.02;93.78;101229.88;4894292;29;20135;-82
2022/11/06 03:40:36;;;;;;;9.38;3.22;;;;;;;7.97;93.77;101221.16;4913271;29;20044;-82
2022/11/06 03:43:05;;;;;;;9.57;2.92;;;;;;;8.00;94.25;101226.41;4929279;29;20118;-82
2022/11/06 03:45:32;;;;;;;8.60;4.32;;;;;;;7.98;94.35;101217.50;4928918;29;20020;-81
2022/11/06 03:48:30;;;;;;;5.80;2.60;;;;;;;8.00;94.30;101226.41;4928971;29;20475;-82
2022/11/06 03:51:04;;;;;;;8.95;3.20;;;;;;;8.03;94.59;101224.41;4901476;29;20047;-82
2022/11/06 03:53:37;;;;;;;8.23;2.97;;;;;;;8.05;94.34;101208.06;4928749;29;20035;-82
2022/11/06 03:56:08;;;;;;;;;;;;;;;8.13;93.62;101203.09;4929140;29;20605;-82
2022/11/06 03:58:39;;;;;;;7.95;2.70;;;;;;;8.13;94.25;101200.38;4930052;29;19921;-82
2022/11/06 04:01:07;;;;;;;4.90;3.13;;;;;;;8.19;93.96;101202.72;4943343;29;20039;-82
2022/11/06 04:04:05;;;;;;;9.18;2.60;;;;;;;8.24;94.16;101189.78;4908772;29;20042;-82
2022/11/06 04:06:36;;;;;;;7.13;3.35;;;;;;;8.22;93.82;101189.00;4914514;29;20083;-82
2022/11/06 04:14:36;;;;;;;10.10;2.83;;;;;;;8.20;93.36;101196.34;4914727;29;20039;-82
2022/11/06 04:17:05;;;;;;;7.30;2.83;;;;;;;8.21;93.71;101194.50;4918669;29;20040;-82
2022/11/06 04:19:30;;;;;;;9.98;2.20;;;;;;;8.18;94.14;101182.88;4915305;29;20221;-82
2022/11/06 04:22:40;;;;;;;9.25;2.42;;;;;;;8.21;93.63;101186.38;4914437;29;20121;-82
2022/11/06 04:28:22;;;;;;;5.88;2.42;;;;;;;8.28;93.58;101164.25;4914568;29;20039;-82
2022/11/06 04:30:59;;;;;;;5.35;2.70;;;;;;;8.28;93.68;101171.50;4928884;29;20040;-82
2022/11/06 04:33:41;;;;;;;11.55;2.70;;;;;;;8.23;94.03;101160.06;4928736;29;20045;-82
2022/11/06 04:36:21;;;;;;;6.60;2.60;;;;;;;8.18;93.83;101161.19;4927625;29;20135;-82
2022/11/06 04:38:52;;;;;;;15.57;3.22;;;;;;;8.13;94.22;101160.59;4897894;29;20043;-81
2022/11/06 04:41:33;;;;;;;8.65;2.55;;;;;;;8.12;94.34;101153.44;4926305;29;20475;-82
2022/11/06 04:44:27;;;;;;;10.90;2.60;;;;;;;8.10;93.82;101162.59;4914814;29;20043;-82
2022/11/06 04:46:57;;;;;;;6.03;2.30;;;;;;;8.02;94.29;101149.50;4897227;29;20095;-82
2022/11/06 04:49:26;;;;;;;7.75;3.08;;;;;;;7.98;95.02;101155.19;4915157;29;20049;-82
2022/11/06 04:51:52;;;;;;;7.15;2.85;;;;;;;7.98;95.05;101157.91;4927092;29;20032;-82
2022/11/06 04:54:18;;;;;;;10.18;2.80;;;;;;;7.99;95.22;101148.81;4914664;29;20020;-82
2022/11/06 04:56:43;;;;;;;8.68;3.30;;;;;;;7.98;95.07;101142.50;4912292;29;20066;-82
2022/11/06 04:59:12;;;;;;;6.60;3.15;;;;;;;7.98;95.63;101152.47;4912568;29;20040;-82
2022/11/06 05:01:38;;;;;;;9.25;3.03;;;;;;;8.00;95.20;101148.69;4911712;29;20437;-82
2022/11/06 05:04:03;;;;;;;6.78;2.80;;;;;;;8.01;95.19;101153.16;4927678;29;20135;-82
2022/11/06 05:06:28;;;;;;;5.85;2.30;;;;;;;7.94;95.38;101140.94;4919793;29;20134;-82
2022/11/06 05:08:56;;;;;;;7.80;2.80;;;;;;;7.91;95.51;101132.97;4923506;29;20048;-82
2022/11/06 05:11:22;;;;;;;4.85;2.47;;;;;;;7.91;95.70;101146.50;4930518;29;20040;-82
2022/11/06 05:13:47;;;;;;;6.97;2.72;;;;;;;7.91;95.71;101135.69;4915612;29;20035;-82
2022/11/06 05:16:12;;;;;;;7.45;2.65;;;;;;;7.92;95.96;101135.59;4931010;29;20042;-82
2022/11/06 05:18:38;;;;;;;6.75;2.72;;;;;;;7.90;95.69;101131.22;4932410;29;20059;-82
2022/11/06 05:23:47;;;;;;;9.57;3.00;;;;;;;7.87;96.25;101125.97;4925979;29;20483;-82
2022/11/06 05:26:13;;;;;;;8.30;2.88;;;;;;;7.83;96.60;101128.00;4930277;29;20032;-82
2022/11/06 05:28:38;;;;;;;8.57;3.63;;;;;;;7.80;95.98;101116.47;4930647;29;20038;-82
2022/11/06 05:31:04;;;;;;;6.38;2.90;;;;;;;7.77;96.23;101127.47;4915017;29;20078;-81
2022/11/06 05:33:29;;;;;;;6.75;3.10;;;;;;;7.82;96.55;101130.78;4914842;29;20559;-82
2022/11/06 05:35:55;;;;;;;6.88;3.15;;;;;;;7.83;96.76;101128.00;4912673;29;20178;-81
2022/11/06 05:38:20;;;;;;;5.10;2.70;;;;;;;7.78;96.50;101124.66;4926638;29;20106;-82
2022/11/06 05:40:46;;;;;;;6.75;3.00;;;;;;;7.80;96.72;101122.75;4928893;29;20070;-82
2022/11/06 05:43:11;;;;;;;7.03;3.45;;;;;;;7.77;96.87;101120.22;4930615;29;20028;-82
2022/11/06 05:45:37;;;;;;;6.97;3.00;;;;;;;7.82;96.53;101120.81;4923161;29;20055;-82
2022/11/06 05:48:02;;;;;;;4.95;2.95;;;;;;;7.86;96.71;101121.53;4895799;29;20154;-82
2022/11/06 05:50:28;;;;;;;4.53;2.88;;;;;;;7.85;96.96;101119.78;4929910;29;20063;-82
2022/11/06 05:52:53;;;;;;;9.60;3.47;;;;;;;7.90;96.87;101115.84;4925131;29;20043;-82
2022/11/06 05:55:18;;;;;;;10.60;2.78;;;;;;;7.89;96.87;101113.22;4927790;29;20036;-82
2022/11/06 05:57:44;;;;;;;6.88;2.75;;;;;;;7.85;96.43;101112.53;4912659;29;20397;-82
2022/11/06 06:00:11;;;;;;;7.68;2.75;;;;;;;7.80;96.74;101111.91;4914088;29;20031;-82
2022/11/06 06:02:41;;;;;;;8.48;2.90;;;;;;;7.80;97.12;101101.09;4914609;29;20142;-82
2022/11/06 06:05:07;;;;;;;7.72;2.88;;;;;;;7.81;96.74;101096.53;4911986;29;20047;-82
2022/11/06 06:07:33;;;;;;;9.70;2.63;;;;;;;7.84;96.93;101099.97;4935931;29;20469;-82
2022/11/06 06:09:59;;;;;;;6.60;2.92;;;;;;;7.87;96.62;101107.00;4901459;29;20047;-82
2022/11/06 06:12:25;;;;;;;9.45;2.83;;;;;;;7.86;96.78;101098.00;4911247;29;20028;-82
2022/11/06 06:14:51;;;;;;;9.73;2.78;;;;;;;7.87;96.58;101098.88;4912856;29;20036;-82
2022/11/06 06:17:17;;;;;;;4.43;2.45;;;;;;;7.85;97.14;101096.28;4928866;29;20042;-82
2022/11/06 06:19:42;;;;;;;6.70;2.88;;;;;;;7.83;97.07;101091.88;4913927;29;20114;-82
2022/11/06 06:22:08;;;;;;;7.15;2.17;;;;;;;7.84;97.13;101082.84;4912817;29;20067;-82
2022/11/06 06:24:34;;;;;;;34.03;5.07;;;;;;;7.84;97.23;101082.84;4925600;29;20439;-82
2022/11/06 06:26:59;;;;;;;6.50;2.80;;;;;;;7.86;97.24;101086.31;4927088;29;20119;-82
2022/11/06 06:29:25;;;;;;;6.90;2.78;;;;;;;7.88;96.80;101076.25;4910861;29;20087;-82
2022/11/06 06:31:50;;;;;;;5.32;2.45;;;;;;;7.90;97.14;101083.34;4910347;29;20044;-82
2022/11/06 06:34:16;;;;;;;12.75;2.97;;;;;;;7.92;96.85;101075.97;4895292;29;20771;-82
2022/11/06 06:36:41;;;;;;;5.75;2.42;;;;;;;7.97;96.34;101091.09;4923249;29;20044;-82
2022/11/06 06:39:07;;;;;;;6.13;2.72;;;;;;;7.95;96.42;101082.19;4925511;29;20685;-82
2022/11/06 06:41:32;;;;;;;5.13;2.50;;;;;;;8.00;96.07;101097.22;4929429;29;20059;-82
2022/11/06 06:43:58;;;;;;;8.60;3.10;;;;;;;8.03;96.17;101104.31;4929967;29;20050;-82
2022/11/06 06:46:23;;;;;;;7.68;2.78;;;;;;;7.99;96.10;101094.63;4912686;29;20075;-82
2022/11/06 06:48:49;;;;;;;3.67;2.45;;;;;;;7.98;95.98;101092.88;4930660;29;20106;-82
2022/11/06 06:51:14;;;;;;;7.95;2.50;;;;;;;8.01;96.41;101090.84;4924983;29;20039;-82
2022/11/06 06:53:40;;;;;;;11.30;2.67;;;;;;;8.00;96.59;101090.94;4924052;29;20123;-82
2022/11/06 06:56:06;;;;;;;8.95;2.63;;;;;;;8.04;96.34;101084.38;4925235;29;20108;-82
2022/11/06 06:58:31;;;;;;;8.45;2.58;;;;;;;8.07;95.79;101073.38;4913514;29;20032;-82
2022/11/06 07:01:01;;;;;;;4.68;2.00;;;;;;;8.09;95.78;101064.19;4928710;29;20039;-82
2022/11/06 07:03:27;;;;;;;7.45;2.53;;;;;;;8.10;96.14;101065.91;4926484;29;20023;-82
2022/11/06 07:05:52;;;;;;;7.03;3.42;;;;;;;8.17;95.58;101072.75;4923079;29;20953;-82
2022/11/06 07:08:17;;;;;;;9.85;2.83;;;;;;;8.23;95.84;101078.75;4928763;29;20064;-82
2022/11/06 07:10:43;;;;;;;8.50;3.80;;;;;;;8.33;95.66;101077.25;4927886;29;20091;-82
2022/11/06 07:13:08;;;;;;;8.35;2.88;;;;;;;8.42;95.58;101082.16;4929996;29;20024;-82
2022/11/06 07:15:34;;;;;;;5.15;2.95;;;;;;;8.53;95.88;101076.06;4925030;29;20463;-82
2022/11/06 07:18:04;;;;;;;6.47;2.03;;;;;;;8.59;94.97;101068.47;4929304;29;20028;-82
2022/11/06 07:20:30;;;;;;;5.20;2.50;;;;;;;8.65;95.13;101065.38;4911928;29;20031;-82
2022/11/06 07:22:55;;;;;;;8.68;2.50;;;;;;;8.73;94.53;101075.75;4909787;29;20060;-82
2022/11/06 07:25:21;;;;;;;6.82;2.65;;;;;;;8.80;94.83;101071.69;4928015;29;20040;-82
2022/11/06 07:27:46;;;;;;;7.82;2.72;;;;;;;8.86;94.31;101063.19;4929566;29;20035;-82
2022/11/06 07:30:12;;;;;;;8.38;2.60;;;;;;;8.96;93.77;101068.91;4927509;29;20429;-82
2022/11/06 07:32:37;;;;;;;4.25;2.22;;;;;;;9.01;93.57;101074.94;4927765;29;20541;-81
2022/11/06 07:35:03;;;;;;;8.85;2.60;;;;;;;9.07;93.71;101073.66;4909758;29;20028;-81
2022/11/06 07:37:29;;;;;;;6.90;2.45;;;;;;;9.12;93.74;101075.13;4938975;29;20404;-82
2022/11/06 07:39:54;;;;;;;7.70;3.60;;;;;;;9.14;93.23;101078.63;4943269;29;20042;-82
2022/11/06 07:42:19;;;;;;;5.18;2.55;;;;;;;9.18;93.26;101080.16;4929995;29;20027;-82
2022/11/06 07:44:56;;;;;;;8.35;2.13;;;;;;;9.21;92.79;101065.53;4928986;29;20036;-82
2022/11/06 07:47:21;;;;;;;5.63;2.50;;;;;;;9.26;92.31;101057.09;4928572;29;20047;-82
2022/11/06 07:49:47;;;;;;;7.75;2.20;;;;;;;9.32;92.26;101049.41;4928371;29;20516;-82
2022/11/06 07:52:12;;;;;;;3.78;2.28;;;;;;;9.36;92.12;101058.25;4920046;29;20099;-82
2022/11/06 07:54:37;;;;;;;4.63;2.10;;;;;;;9.44;91.57;101050.47;4917014;29;20040;-83
2022/11/06 07:57:03;;;;;;;5.70;1.90;;;;;;;9.48;91.28;101041.16;4915108;29;20136;-82
2022/11/06 07:59:28;;;;;;;9.32;2.40;;;;;;;9.53;91.64;101054.47;4915596;29;20075;-82
2022/11/06 08:01:54;;;;;;;8.18;2.05;;;;;;;9.54;90.79;101045.31;4912933;29;20058;-82
2022/11/06 08:04:19;;;;;;;10.70;2.40;;;;;;;9.53;91.18;101043.59;4939220;29;20062;-82
2022/11/06 08:06:44;;;;;;;6.97;2.47;;;;;;;9.51;91.11;101046.38;4926148;29;20056;-82
2022/11/06 08:09:10;;;;;;;6.32;2.00;;;;;;;9.52;91.19;101052.72;4925243;29;20142;-82
2022/11/06 08:11:35;;;;;;;5.00;2.42;;;;;;;9.53;90.93;101051.75;4897786;29;20115;-82
2022/11/06 08:14:01;;;;;;;5.90;2.38;;;;;;;9.55;90.85;101047.06;4899505;29;20384;-82
2022/11/06 08:16:26;;;;;;;8.65;2.58;;;;;;;9.58;90.92;101050.47;4933464;29;20464;-82
2022/11/06 08:18:52;;;;;;;4.38;1.77;;;;;;;9.66;90.65;101055.41;4912912;29;20414;-82
2022/11/06 08:21:18;;;;;;;5.07;2.47;;;;;;;9.75;90.28;101056.66;4935800;29;20040;-82
2022/11/06 08:23:43;;;;;;;10.07;2.58;;;;;;;9.81;90.58;101039.94;4913796;29;20075;-83
2022/11/06 08:26:09;;;;;;;2.15;1.88;;;;;;;9.85;89.96;101033.34;4928604;29;20178;-83
2022/11/06 08:28:35;;;;;;;8.73;2.05;;;;;;;9.92;89.79;101037.38;4908549;29;20460;-82
2022/11/06 08:31:08;;;;;;;7.32;2.47;;;;;;;9.96;89.09;101028.03;4912827;29;20123;-82
2022/11/06 08:33:34;;;;;;;7.90;1.95;;;;;;;9.97;88.90;101033.34;4914723;29;20194;-82
2022/11/06 08:36:02;;;;;;;10.45;2.40;;;;;;;10.03;89.17;101032.09;4928379;29;20047;-82
2022/11/06 08:38:27;;;;;;;4.20;1.77;;;;;;;10.09;89.11;101022.66;4920859;29;20403;-82
2022/11/06 08:40:53;;;;;;;7.60;2.15;;;;;;;10.17;89.00;101013.00;4931333;29;20043;-82
2022/11/06 08:43:18;;;;;;;7.85;2.25;;;;;;;10.26;88.13;101026.97;4914770;29;20352;-82
2022/11/06 08:45:44;;;;;;;6.93;2.00;;;;;;;10.34;87.74;101024.59;4931817;29;20170;-82
2022/11/06 08:48:10;;;;;;;5.88;2.30;;;;;;;10.43;88.35;101024.84;4932670;29;20039;-83
2022/11/06 08:50:37;;;;;;;5.97;1.95;;;;;;;10.46;87.44;101008.31;4914555;29;20131;-82
2022/11/06 08:53:05;;;;;;;6.65;1.92;;;;;;;10.52;86.84;101015.16;4932005;29;20035;-82
2022/11/06 08:55:34;;;;;;;4.55;1.80;;;;;;;10.57;88.03;101004.84;4930807;29;20023;-82
2022/11/06 08:58:00;;;;;;;8.43;2.95;;;;;;;10.67;86.61;101000.47;4931697;29;20126;-83
2022/11/06 09:00:25;;;;;;;4.72;1.95;;;;;;;10.73;85.73;100994.63;4931349;29;20040;-83
2022/11/06 09:03:00;;;;;;;7.63;1.90;;;;;;;10.83;85.14;101003.00;4909850;29;20032;-82
2022/11/06 09:05:26;;;;;;;13.48;2.97;;;;;;;10.89;85.26;101001.69;4912238;29;20480;-82
2022/11/06 09:07:52;;;;;;;7.63;2.28;;;;;;;10.97;85.88;100996.59;4928147;29;20134;-82
2022/11/06 09:10:18;;;;;;;8.48;2.50;;;;;;;10.97;84.03;100983.84;4927828;29;20466;-82
2022/11/06 09:12:44;;;;;;;4.18;1.63;;;;;;;10.96;83.64;100973.06;4913057;29;20491;-82
2022/11/06 09:15:10;;;;;;;3.08;1.90;;;;;;;10.96;83.75;100973.94;4924770;29;20038;-82
2022/11/06 09:17:43;;;;;;;3.70;1.77;;;;;;;11.01;85.01;100967.28;4931147;29;20273;-82
2022/11/06 09:20:09;;;;;;;8.98;1.90;;;;;;;11.03;83.95;100963.47;4929167;29;20051;-82
2022/11/06 09:22:34;;;;;;;7.32;2.20;;;;;;;11.03;83.60;100954.44;4915594;29;20386;-82
2022/11/06 09:25:00;;;;;;;4.55;1.92;;;;;;;11.10;83.54;100953.88;4917241;29;20111;-82
2022/11/06 09:27:25;;;;;;;8.18;3.22;;;;;;;11.16;83.89;100941.66;4913866;29;20547;-82
2022/11/06 09:29:50;;;;;;;4.63;1.70;;;;;;;11.16;82.39;100938.94;4942168;29;20027;-82
2022/11/06 09:32:16;;;;;;;6.85;2.08;;;;;;;11.26;82.60;100939.13;4927500;29;20052;-82
2022/11/06 09:34:41;;;;;;;5.70;1.77;;;;;;;11.41;81.57;100927.09;4912483;29;20032;-82
2022/11/06 09:37:06;;;;;;;4.88;1.75;;;;;;;11.63;81.80;100939.97;4919567;29;20051;-82
2022/11/06 09:39:32;;;;;;;8.98;1.75;;;;;;;11.79;80.48;100948.72;4930266;29;20228;-82
2022/11/06 09:42:13;;;;;;;3.80;2.10;;;;;;;11.85;81.50;100942.00;4896553;29;20044;-82
2022/11/06 09:45:10;;;;;;;3.20;1.55;;;;;;;11.87;79.85;100932.69;4915376;29;20044;-82
2022/11/06 09:47:42;;;;;;;4.72;1.75;;;;;;;11.95;80.99;100935.72;4912000;29;20059;-82
2022/11/06 09:50:18;;;;;;;7.90;1.67;;;;;;;12.05;81.17;100938.59;4912466;29;20082;-82
2022/11/06 09:53:06;;;;;;;7.20;2.40;;;;;;;12.12;79.10;100939.84;4927545;29;20036;-83
2022/11/06 09:55:41;;;;;;;3.05;1.60;;;;;;;12.11;79.49;100940.84;4928701;29;20036;-82
2022/11/06 09:58:20;;;;;;;5.32;1.50;;;;;;;12.12;79.09;100934.38;4913699;29;20501;-82
2022/11/06 10:00:47;;;;;;;6.70;1.63;;;;;;;12.10;79.22;100927.31;4927902;29;20055;-82
2022/11/06 10:03:45;;;;;;;5.25;1.40;;;;;;;12.06;77.85;100928.56;4913019;29;20070;-82
2022/11/06 10:06:11;;;;;;;6.88;1.60;;;;;;;12.04;77.75;100934.13;4915976;29;20058;-82
2022/11/06 10:08:37;;;;;;;3.67;1.40;;;;;;;12.05;79.39;100919.50;4926896;29;20047;-83
2022/11/06 10:11:46;;;;;;;4.20;1.45;;;;;;;12.12;79.52;100918.03;4929290;29;20373;-82
2022/11/06 10:14:32;;;;;;;7.00;1.58;;;;;;;12.22;78.66;100923.66;4932474;29;20036;-83
2022/11/06 10:17:09;;;;;;;6.00;1.55;;;;;;;12.30;78.90;100912.13;4942315;29;20052;-83
2022/11/06 10:20:04;;;;;;;4.68;1.42;;;;;;;12.34;78.84;100900.00;4911814;29;20063;-82
2022/11/06 10:22:37;;;;;;;7.20;1.73;;;;;;;12.38;76.57;100906.94;4925217;29;20082;-83
2022/11/06 10:25:18;;;;;;;6.55;1.83;;;;;;;12.29;76.87;100916.72;4916889;29;20047;-82
2022/11/06 10:28:01;;;;;;;4.85;1.30;;;;;;;12.16;77.50;100911.34;4919724;29;20050;-82
2022/11/06 10:30:41;;;;;;;;;;;;;;;12.12;77.99;100893.47;4917371;29;20044;-83
2022/11/06 10:33:13;;;;;;;4.18;1.70;;;;;;;11.93;77.17;100909.53;4928332;29;19965;-83
2022/11/06 10:36:00;;;;;;;9.68;2.30;;;;;;;11.91;78.13;100895.16;4926848;29;20040;-82
2022/11/06 10:38:39;;;;;;;5.82;1.60;;;;;;;11.92;78.20;100900.50;4946155;29;20107;-83
2022/11/06 10:41:17;;;;;;;7.90;1.90;;;;;;;11.96;78.81;100903.84;4941100;29;20492;-82
2022/11/06 10:43:51;;;;;;;3.72;1.20;;;;;;;12.06;77.40;100890.38;4929343;29;20044;-82
2022/11/06 10:46:33;;;;;;;3.03;1.40;;;;;;;12.19;77.39;100886.56;4910787;29;20495;-82
2022/11/06 10:49:24;;;;;;;5.05;1.40;;;;;;;12.32;77.60;100877.44;4930735;29;20050;-82
2022/11/06 10:52:29;;;;;;;4.15;1.45;;;;;;;12.40;76.84;100864.91;4926311;29;20035;-83
2022/11/06 10:55:16;;;;;;;3.53;1.48;;;;;;;12.54;76.61;100860.19;4926206;29;20036;-82
2022/11/06 10:57:58;;;;;;;4.95;1.80;;;;;;;12.58;76.47;100858.94;4912167;29;20036;-83
2022/11/06 11:00:23;;;;;;;6.53;1.80;;;;;;;12.64;74.49;100855.75;4914474;29;20118;-83
2022/11/06 11:02:54;;;;;;;4.13;1.30;;;;;;;12.64;74.53;100847.56;4925887;29;20210;-83
2022/11/06 11:05:22;;;;;;;4.43;1.70;;;;;;;12.70;75.26;100836.13;4910960;29;20040;-82
2022/11/06 11:07:49;;;;;;;4.60;1.65;;;;;;;12.68;74.43;100833.53;4928016;29;20114;-83
2022/11/06 11:10:30;;;;;;;5.25;1.63;;;;;;;12.77;75.27;100842.81;4928712;29;20091;-83
2022/11/06 11:12:59;;;;;;;3.72;1.48;;;;;;;12.75;73.36;100834.75;4928960;29;20035;-84
2022/11/06 11:15:27;;;;;;;10.23;1.98;;;;;;;12.73;74.04;100830.44;4913038;29;20426;-83
2022/11/06 11:18:12;;;;;;;3.90;1.45;;;;;;;12.74;74.44;100830.31;4930086;29;20107;-83
2022/11/06 11:20:43;;;;;;;4.20;1.55;;;;;;;12.79;74.92;100835.38;4924628;29;20234;-82
2022/11/06 11:23:21;;;;;;;5.60;1.98;;;;;;;12.73;74.91;100827.72;4942059;28;20094;-83
2022/11/06 11:25:52;;;;;;;6.38;1.50;;;;;;;12.66;74.15;100829.19;4926799;29;20066;-82
2022/11/06 11:28:32;;;;;;;5.37;2.10;;;;;;;12.64;73.80;100820.28;4930852;29;20042;-82
2022/11/06 11:31:09;;;;;;;5.95;1.98;;;;;;;12.58;74.39;100823.47;4911738;29;20071;-83
2022/11/06 11:33:36;;;;;;;5.45;1.60;;;;;;;12.53;73.62;100815.66;4908727;29;20036;-82
2022/11/06 11:36:04;;;;;;;3.38;1.52;;;;;;;12.49;73.58;100809.56;4919424;29;20038;-82
2022/11/06 11:38:29;;;;;;;5.95;1.50;;;;;;;12.54;73.50;100798.28;4933803;29;20461;-82
2022/11/06 11:41:07;;;;;;;5.68;1.63;;;;;;;12.61;73.67;100802.28;4926242;29;20111;-83
2022/11/06 11:43:33;;;;;;;7.28;2.00;;;;;;;12.59;73.54;100801.53;4928791;29;20035;-83
2022/11/06 11:46:07;;;;;;;6.50;1.60;;;;;;;12.56;73.85;100800.91;4926146;29;20086;-83
2022/11/06 11:48:51;;;;;;;3.45;1.50;;;;;;;12.50;72.96;100792.22;4909710;29;20042;-83
2022/11/06 11:51:28;;;;;;;5.82;1.60;;;;;;;12.41;73.73;100794.84;4918873;29;20122;-82
2022/11/06 11:53:57;;;;;;;3.78;1.50;;;;;;;12.36;74.35;100800.69;4918952;29;20035;-82
2022/11/06 11:56:25;;;;;;;9.13;1.40;;;;;;;12.26;73.97;100777.81;4910440;29;20527;-82
2022/11/06 11:58:54;;;;;;;3.63;1.45;;;;;;;12.29;72.91;100785.78;4925742;29;20407;-82